Time;durP1;ratioP1;P1;durP2;ratioP2;P2;SDS_P1;SDS_P2;PMS_P1;PMS_P2;Temp;Humidity;BMP_temperature;BMP_pressure;BME280_temperature;BME280_humidity;BME280_pressure;Samples;Min_cycle;Max_cycle;Signal;HPM_P1;HPM_P2
2022/12/22 03:25:53;;;;;;;0.40;0.30;;;9.90;99.90;;;;;;5064554;28;20426;-57
2022/12/22 03:28:21;;;;;;;0.50;0.20;;;9.90;99.90;;;;;;5076393;28;20450;-57
2022/12/22 03:30:54;;;;;;;0.60;0.30;;;9.90;99.90;;;;;;5077567;28;20494;-57
2022/12/22 03:33:24;;;;;;;1.00;0.20;;;9.90;99.90;;;;;;5076140;28;20809;-57
2022/12/22 03:35:51;;;;;;;0.70;0.30;;;9.80;99.90;;;;;;5073601;28;20498;-55
2022/12/22 03:38:18;;;;;;;0.40;0.20;;;9.80;99.90;;;;;;5076297;28;20427;-57
2022/12/22 03:40:45;;;;;;;0.70;0.30;;;9.80;99.90;;;;;;5077094;28;20427;-56
2022/12/22 03:49:08;;;;;;;0.47;0.30;;;9.80;99.90;;;;;;5048780;28;20401;-56
2022/12/22 03:51:35;;;;;;;0.73;0.20;;;9.80;99.90;;;;;;5055002;28;20879;-56
2022/12/22 03:54:03;;;;;;;0.45;0.20;;;9.90;99.90;;;;;;5071171;28;20510;-57
2022/12/22 03:56:30;;;;;;;0.80;0.30;;;9.90;99.90;;;;;;5075517;28;20469;-57
2022/12/22 03:58:57;;;;;;;0.40;0.30;;;9.90;99.90;;;;;;5072466;28;20467;-55
2022/12/22 04:01:25;;;;;;;1.48;0.20;;;10.00;99.90;;;;;;5076697;28;20431;-57
2022/12/22 04:03:53;;;;;;;0.50;0.30;;;10.00;99.90;;;;;;5076470;28;20490;-57
2022/12/22 04:06:21;;;;;;;0.80;0.30;;;10.00;99.90;;;;;;5074571;28;20814;-57
2022/12/22 04:08:48;;;;;;;0.40;0.20;;;10.10;99.90;;;;;;5070536;28;20886;-56
2022/12/22 04:14:03;;;;;;;0.50;0.20;;;10.00;99.90;;;;;;5076428;28;20853;-57
2022/12/22 04:16:32;;;;;;;0.50;0.20;;;10.10;99.90;;;;;;5075103;28;20522;-57
2022/12/22 04:19:00;;;;;;;0.40;0.20;;;10.10;99.90;;;;;;5076350;28;20455;-57
2022/12/22 04:21:28;;;;;;;0.30;0.20;;;10.20;99.90;;;;;;5075767;28;20522;-57
2022/12/22 04:23:55;;;;;;;0.80;0.30;;;10.10;99.90;;;;;;5069810;28;20435;-57
2022/12/22 04:26:24;;;;;;;0.50;0.30;;;10.10;99.90;;;;;;5075384;28;21170;-57
2022/12/22 04:28:52;;;;;;;0.68;0.22;;;10.20;99.90;;;;;;5074986;28;20771;-56
2022/12/22 04:31:20;;;;;;;0.30;0.20;;;10.20;99.90;;;;;;5075974;28;20426;-57
2022/12/22 04:33:47;;;;;;;0.43;0.20;;;10.10;99.90;;;;;;5074176;28;20526;-56
2022/12/22 04:36:16;;;;;;;0.77;0.20;;;10.20;99.90;;;;;;5075654;28;20455;-56
2022/12/22 04:38:43;;;;;;;0.40;0.20;;;10.20;99.90;;;;;;5075523;28;20541;-54
2022/12/22 04:41:11;;;;;;;0.40;0.20;;;10.20;99.90;;;;;;5075353;28;20467;-56
2022/12/22 04:43:38;;;;;;;0.40;0.20;;;10.10;99.90;;;;;;5074406;28;20538;-56
2022/12/22 04:46:06;;;;;;;0.40;0.20;;;10.10;99.90;;;;;;5075444;28;20503;-57
2022/12/22 04:48:33;;;;;;;0.60;0.30;;;10.00;99.90;;;;;;5074866;28;20426;-55
2022/12/22 04:51:03;;;;;;;0.70;0.20;;;10.00;99.90;;;;;;5073919;28;20503;-57
2022/12/22 04:53:32;;;;;;;0.40;0.20;;;10.00;99.90;;;;;;5075143;28;20831;-56
2022/12/22 04:56:02;;;;;;;0.70;0.20;;;10.00;99.90;;;;;;5075501;28;20503;-56
2022/12/22 04:58:29;;;;;;;0.40;0.20;;;10.10;99.90;;;;;;5067534;28;20522;-57
2022/12/22 05:00:56;;;;;;;0.30;0.20;;;10.10;99.90;;;;;;5071476;28;20526;-56
2022/12/22 05:03:24;;;;;;;0.50;0.20;;;10.10;99.90;;;;;;5072221;28;20906;-55
2022/12/22 05:05:51;;;;;;;0.40;0.20;;;10.20;99.90;;;;;;5073689;28;20895;-57
2022/12/22 05:08:18;;;;;;;0.50;0.28;;;10.20;99.90;;;;;;5073454;28;20453;-58
2022/12/22 05:10:47;;;;;;;0.30;0.20;;;10.30;99.90;;;;;;5073473;28;20506;-58
2022/12/22 05:13:14;;;;;;;0.60;0.20;;;10.30;99.90;;;;;;5073480;28;20518;-58
2022/12/22 05:15:41;;;;;;;0.50;0.20;;;10.40;99.90;;;;;;5073326;28;20514;-58
2022/12/22 05:18:09;;;;;;;0.50;0.20;;;10.40;99.90;;;;;;5073574;28;21042;-57
2022/12/22 05:20:36;;;;;;;0.40;0.20;;;10.40;99.90;;;;;;5073248;28;20441;-56
2022/12/22 05:23:03;;;;;;;0.50;0.20;;;10.50;99.90;;;;;;5071871;28;20939;-59
2022/12/22 05:25:31;;;;;;;0.50;0.20;;;10.50;99.90;;;;;;5072846;28;20511;-58
2022/12/22 05:27:59;;;;;;;0.70;0.20;;;10.50;99.90;;;;;;5071277;28;20510;-59
2022/12/22 05:30:27;;;;;;;0.50;0.30;;;10.40;99.90;;;;;;5073516;28;20794;-59
2022/12/22 05:32:54;;;;;;;0.60;0.30;;;10.50;99.90;;;;;;5074293;28;20467;-57
2022/12/22 05:35:21;;;;;;;0.70;0.30;;;10.60;99.90;;;;;;5073737;28;20515;-55
2022/12/22 05:37:48;;;;;;;0.50;0.20;;;10.50;99.90;;;;;;5074391;28;20526;-57
2022/12/22 05:40:15;;;;;;;0.77;0.20;;;10.50;99.90;;;;;;5074558;28;20419;-57
2022/12/22 05:42:42;;;;;;;0.60;0.20;;;10.50;99.90;;;;;;5074672;28;20768;-57
2022/12/22 05:45:15;;;;;;;1.20;0.20;;;10.60;99.90;;;;;;5074629;28;20451;-56
2022/12/22 05:47:43;;;;;;;0.60;0.30;;;10.60;99.90;;;;;;5074061;28;20785;-56
2022/12/22 05:50:12;;;;;;;1.30;0.50;;;10.50;99.90;;;;;;5073541;28;20510;-57
2022/12/22 05:52:39;;;;;;;1.00;0.30;;;10.50;99.90;;;;;;5072614;28;20426;-57
2022/12/22 05:55:07;;;;;;;0.60;0.30;;;10.50;99.90;;;;;;5071324;28;20531;-57
2022/12/22 05:57:35;;;;;;;0.55;0.20;;;10.50;99.90;;;;;;5071580;28;20492;-57
2022/12/22 06:00:03;;;;;;;0.55;0.22;;;10.50;99.90;;;;;;5070511;28;20452;-58
2022/12/22 06:02:32;;;;;;;1.30;0.30;;;10.40;99.90;;;;;;5070885;28;20459;-57
2022/12/22 06:04:59;;;;;;;1.00;0.20;;;10.40;99.90;;;;;;5073480;28;20502;-56
2022/12/22 06:07:26;;;;;;;1.10;0.20;;;10.30;99.90;;;;;;5072485;28;20622;-58
2022/12/22 06:09:53;;;;;;;1.00;0.30;;;10.30;99.90;;;;;;5072651;28;20558;-56
2022/12/22 06:12:20;;;;;;;1.00;0.30;;;10.30;99.90;;;;;;5071567;28;20761;-57
2022/12/22 06:14:48;;;;;;;1.20;0.22;;;10.20;99.90;;;;;;5073273;28;20494;-57
2022/12/22 06:17:15;;;;;;;2.05;0.30;;;10.20;99.90;;;;;;5071856;28;20505;-57
2022/12/22 06:19:43;;;;;;;1.15;0.30;;;10.20;99.90;;;;;;5071836;28;20507;-57
2022/12/22 06:22:11;;;;;;;0.60;0.20;;;10.20;99.90;;;;;;5072892;28;20530;-56
2022/12/22 06:24:38;;;;;;;0.90;0.40;;;10.10;99.90;;;;;;5072993;28;20506;-56
2022/12/22 06:27:05;;;;;;;0.63;0.30;;;10.00;99.90;;;;;;5071735;28;20412;-57
2022/12/22 06:29:34;;;;;;;2.00;0.30;;;10.00;99.90;;;;;;5073304;28;20453;-57
2022/12/22 06:32:01;;;;;;;0.70;0.30;;;10.00;99.90;;;;;;5072320;28;20415;-55
2022/12/22 06:34:28;;;;;;;1.05;0.30;;;10.00;99.90;;;;;;5072230;28;20482;-57
2022/12/22 06:36:57;;;;;;;0.95;0.20;;;9.90;99.90;;;;;;5073020;28;20518;-57
2022/12/22 06:39:24;;;;;;;0.80;0.30;;;10.00;99.90;;;;;;5072182;28;20526;-56
2022/12/22 06:44:36;;;;;;;1.00;0.30;;;10.20;99.90;;;;;;5070013;28;20403;-57
2022/12/22 06:47:04;;;;;;;1.23;0.40;;;10.20;99.90;;;;;;5071115;28;20423;-58
2022/12/22 06:49:31;;;;;;;1.30;0.60;;;10.40;99.90;;;;;;5071578;28;20510;-56
2022/12/22 06:52:00;;;;;;;0.60;0.30;;;10.40;99.90;;;;;;5071053;28;20515;-56
2022/12/22 06:54:27;;;;;;;1.10;0.30;;;10.60;99.90;;;;;;5074154;28;20507;-58
2022/12/22 06:56:57;;;;;;;1.20;0.30;;;10.80;99.90;;;;;;5074307;28;20439;-58
2022/12/22 06:59:24;;;;;;;1.20;0.30;;;11.00;99.90;;;;;;5074647;28;20431;-58
2022/12/22 07:01:51;;;;;;;1.70;0.30;;;11.00;99.90;;;;;;5074263;28;20427;-56
2022/12/22 07:04:20;;;;;;;1.70;0.40;;;11.10;99.90;;;;;;5073490;28;20608;-58
2022/12/22 07:06:48;;;;;;;0.85;0.40;;;11.10;99.90;;;;;;5075492;28;20517;-58
2022/12/22 07:09:16;;;;;;;1.60;0.30;;;11.10;99.90;;;;;;5081401;28;20545;-58
2022/12/22 07:11:44;;;;;;;0.60;0.30;;;11.10;99.90;;;;;;5072516;28;20440;-58
2022/12/22 07:14:15;;;;;;;1.17;0.32;;;11.00;99.90;;;;;;5072290;28;20495;-58
2022/12/22 07:16:43;;;;;;;1.80;0.40;;;11.00;99.90;;;;;;5072596;28;20427;-57
2022/12/22 07:19:10;;;;;;;1.92;0.30;;;11.00;99.90;;;;;;5072843;28;20949;-57
2022/12/22 07:21:37;;;;;;;1.90;0.30;;;11.00;99.90;;;;;;5074738;28;20427;-58
2022/12/22 07:24:05;;;;;;;0.85;0.30;;;11.10;99.90;;;;;;5073867;28;20431;-58
2022/12/22 07:26:34;;;;;;;2.20;0.40;;;11.00;99.90;;;;;;5072087;28;20837;-58
2022/12/22 07:29:01;;;;;;;1.10;0.30;;;11.00;99.90;;;;;;5073152;28;20530;-59
2022/12/22 07:31:28;;;;;;;1.23;0.30;;;11.10;99.90;;;;;;5073404;28;20503;-58
2022/12/22 07:33:55;;;;;;;2.78;0.40;;;11.00;99.90;;;;;;5072816;28;20862;-58
2022/12/22 07:36:22;;;;;;;2.10;0.30;;;11.00;99.90;;;;;;5072744;28;20510;-59
2022/12/22 07:38:51;;;;;;;1.30;0.60;;;11.10;99.90;;;;;;5072163;28;20796;-52
2022/12/22 07:44:06;;;;;;;1.77;0.40;;;11.10;99.90;;;;;;5069808;28;20553;-56
2022/12/22 07:46:36;;;;;;;1.65;0.35;;;11.20;99.90;;;;;;5071045;28;20842;-55
2022/12/22 07:51:48;;;;;;;1.70;0.30;;;11.10;99.90;;;;;;5071824;28;20460;-56
2022/12/22 07:54:16;;;;;;;1.40;0.40;;;11.00;99.90;;;;;;5084564;28;20512;-55
2022/12/22 07:56:44;;;;;;;0.70;0.30;;;11.00;99.90;;;;;;5083067;28;20463;-58
2022/12/22 07:59:13;;;;;;;1.77;0.40;;;11.00;99.90;;;;;;5073199;28;20875;-56
2022/12/22 08:01:41;;;;;;;1.85;0.30;;;11.00;99.90;;;;;;5066607;28;20522;-54
2022/12/22 08:04:08;;;;;;;1.60;0.30;;;10.80;99.90;;;;;;5070783;28;20427;-53
2022/12/22 08:06:36;;;;;;;2.17;0.30;;;10.70;99.90;;;;;;5071171;28;20842;-58
2022/12/22 08:09:04;;;;;;;1.17;0.30;;;10.60;99.90;;;;;;5072950;28;20734;-58
2022/12/22 08:11:31;;;;;;;1.20;0.30;;;10.50;99.90;;;;;;5072136;28;20947;-58
2022/12/22 08:14:00;;;;;;;3.10;0.30;;;10.50;99.90;;;;;;5072123;28;20775;-59
2022/12/22 08:16:31;;;;;;;1.75;0.60;;;10.50;99.90;;;;;;5073802;28;20534;-58
2022/12/22 08:18:58;;;;;;;1.50;0.30;;;10.40;99.90;;;;;;5073553;28;20794;-58
2022/12/22 08:21:26;;;;;;;0.95;0.40;;;10.40;99.90;;;;;;5073142;28;20508;-58
2022/12/22 08:23:53;;;;;;;2.20;0.30;;;10.40;99.90;;;;;;5071903;28;20940;-56
2022/12/22 08:26:23;;;;;;;1.50;0.30;;;10.50;99.90;;;;;;5071623;28;21750;-55
2022/12/22 08:28:55;;;;;;;1.35;0.40;;;10.50;99.90;;;;;;5070112;28;20515;-56
2022/12/22 08:31:24;;;;;;;2.58;0.40;;;10.50;99.90;;;;;;5063070;28;20836;-56
2022/12/22 08:33:54;;;;;;;1.50;0.30;;;10.50;99.90;;;;;;5069293;28;20787;-55
2022/12/22 08:36:22;;;;;;;3.00;0.35;;;10.50;99.90;;;;;;5070832;28;20515;-54
2022/12/22 08:38:49;;;;;;;1.80;0.30;;;10.50;99.90;;;;;;5072664;28;20450;-54
2022/12/22 08:41:48;;;;;;;1.40;0.40;;;10.50;99.90;;;;;;5071511;28;20543;-50
2022/12/22 08:44:09;;;;;;;1.87;0.47;;;10.50;99.90;;;;;;5065347;28;20452;-63
2022/12/22 08:46:36;;;;;;;1.42;0.40;;;10.60;99.90;;;;;;5070112;28;20447;-63
2022/12/22 08:49:05;;;;;;;2.20;0.40;;;10.60;99.90;;;;;;5068743;28;20439;-62
2022/12/22 08:51:32;;;;;;;1.00;0.30;;;10.60;99.90;;;;;;5070359;28;20502;-49
2022/12/22 08:53:59;;;;;;;1.40;0.32;;;10.70;99.90;;;;;;5070829;28;20546;-50
2022/12/22 08:56:30;;;;;;;1.55;0.30;;;10.70;99.90;;;;;;5070473;28;20519;-51
2022/12/22 08:58:57;;;;;;;1.70;0.43;;;10.70;99.90;;;;;;5072479;28;20478;-52
2022/12/22 09:01:24;;;;;;;1.65;0.30;;;10.80;99.90;;;;;;5072433;28;20431;-48
2022/12/22 09:03:52;;;;;;;2.00;0.40;;;10.90;99.90;;;;;;5065159;28;20427;-52
2022/12/22 09:06:23;;;;;;;1.40;0.30;;;11.00;99.90;;;;;;5071579;28;20514;-49
2022/12/22 09:08:55;;;;;;;1.10;0.40;;;11.10;99.90;;;;;;5071343;28;20442;-49
2022/12/22 09:11:23;;;;;;;1.65;0.40;;;11.20;99.90;;;;;;5064759;28;20724;-53
2022/12/22 09:13:52;;;;;;;1.50;0.40;;;11.30;99.90;;;;;;5070105;28;20492;-51
2022/12/22 09:16:20;;;;;;;1.10;0.30;;;11.40;99.90;;;;;;5070239;28;20866;-49
2022/12/22 09:18:48;;;;;;;2.00;0.40;;;11.40;99.90;;;;;;5066339;28;21958;-49
2022/12/22 09:21:16;;;;;;;2.00;0.40;;;11.50;99.90;;;;;;5056587;28;20742;-51
2022/12/22 09:23:45;;;;;;;1.90;0.30;;;11.40;99.90;;;;;;5065146;28;20432;-48
2022/12/22 09:26:15;;;;;;;1.00;0.30;;;11.20;99.90;;;;;;5068362;28;20481;-51
2022/12/22 09:28:43;;;;;;;1.40;0.30;;;11.10;99.90;;;;;;5066958;28;20434;-51
2022/12/22 09:31:10;;;;;;;1.45;0.40;;;11.00;99.90;;;;;;5069671;28;20911;-51
2022/12/22 09:33:38;;;;;;;1.90;0.40;;;10.90;99.90;;;;;;5068367;28;20842;-47
2022/12/22 09:36:07;;;;;;;2.25;0.30;;;10.80;99.90;;;;;;5068950;28;20429;-50
2022/12/22 09:38:34;;;;;;;1.60;0.30;;;10.80;99.90;;;;;;5064409;28;20423;-51
2022/12/22 09:41:09;;;;;;;2.00;0.40;;;10.80;99.90;;;;;;5077867;28;20450;-48
2022/12/22 09:43:36;;;;;;;1.92;0.40;;;10.70;99.90;;;;;;5089878;28;20565;-55
2022/12/22 09:46:03;;;;;;;2.77;0.50;;;10.70;99.90;;;;;;5076538;28;20428;-52
2022/12/22 09:48:37;;;;;;;0.90;0.40;;;10.60;99.90;;;;;;5067759;28;20958;-49
2022/12/22 09:51:04;;;;;;;3.50;0.40;;;10.60;99.90;;;;;;5069383;28;20522;-54
2022/12/22 09:53:32;;;;;;;4.03;0.50;;;10.60;99.90;;;;;;5067366;28;20428;-53
2022/12/22 09:55:59;;;;;;;2.33;0.40;;;10.50;99.90;;;;;;5071400;28;20438;-52
2022/12/22 09:58:30;;;;;;;1.80;0.40;;;10.40;99.90;;;;;;5064287;28;20898;-52
2022/12/22 10:01:10;;;;;;;1.10;0.40;;;10.40;99.90;;;;;;5071475;28;20424;-64
2022/12/22 10:03:46;;;;;;;1.60;0.30;;;10.30;99.90;;;;;;5064391;28;20577;-60
2022/12/22 10:06:18;;;;;;;1.40;0.30;;;10.50;99.90;;;;;;5070480;28;20434;-59
2022/12/22 10:08:46;;;;;;;1.33;0.50;;;10.50;99.90;;;;;;5069109;28;20522;-60
2022/12/22 10:11:16;;;;;;;1.80;0.40;;;10.60;99.90;;;;;;5068008;28;20477;-60
2022/12/22 10:13:45;;;;;;;1.27;0.40;;;10.70;99.90;;;;;;5067001;28;20826;-60
2022/12/22 10:16:21;;;;;;;1.23;0.80;;;10.80;99.90;;;;;;5066397;28;20516;-60
2022/12/22 10:18:57;;;;;;;2.10;0.30;;;10.80;99.90;;;;;;5071021;28;20550;-59
2022/12/22 10:21:25;;;;;;;0.75;0.30;;;10.80;99.90;;;;;;5065400;28;20510;-61
2022/12/22 10:23:54;;;;;;;0.90;0.47;;;10.80;99.90;;;;;;5067298;28;20727;-60
2022/12/22 10:26:23;;;;;;;2.20;0.40;;;10.80;99.90;;;;;;5068025;28;20430;-59
2022/12/22 10:28:58;;;;;;;1.00;0.40;;;10.90;99.90;;;;;;5070733;28;20484;-59
2022/12/22 10:31:27;;;;;;;1.30;0.30;;;11.00;99.90;;;;;;5071617;28;20440;-57
2022/12/22 10:33:56;;;;;;;2.35;0.30;;;11.00;99.90;;;;;;5073330;28;20809;-58
2022/12/22 10:36:26;;;;;;;1.57;0.40;;;11.00;99.90;;;;;;5072852;28;20826;-57
2022/12/22 10:39:05;;;;;;;2.20;0.40;;;11.10;99.90;;;;;;5072563;28;20467;-58
2022/12/22 10:41:36;;;;;;;0.63;0.30;;;11.10;99.90;;;;;;5072292;28;20438;-59
2022/12/22 10:44:09;;;;;;;1.70;0.30;;;11.00;99.90;;;;;;5071107;28;20427;-58
2022/12/22 10:46:40;;;;;;;1.35;0.40;;;11.10;99.90;;;;;;5068240;28;20811;-58
2022/12/22 10:49:15;;;;;;;1.60;0.40;;;11.20;99.90;;;;;;5070235;28;20719;-58
2022/12/22 10:51:45;;;;;;;0.82;0.30;;;11.40;99.90;;;;;;5071847;28;20804;-58
2022/12/22 10:54:27;;;;;;;2.55;0.40;;;11.20;99.90;;;;;;5071894;28;20541;-58
2022/12/22 10:57:03;;;;;;;1.40;0.32;;;11.10;99.90;;;;;;5068618;28;20426;-58
2022/12/22 10:59:33;;;;;;;1.45;0.40;;;11.00;99.90;;;;;;5070971;28;20522;-58
2022/12/22 11:02:25;;;;;;;1.35;0.40;;;11.00;99.90;;;;;;5071934;28;20510;-59
2022/12/22 11:04:53;;;;;;;1.00;0.30;;;11.00;99.90;;;;;;5049490;28;20429;-58
2022/12/22 11:07:20;;;;;;;1.30;0.40;;;10.90;99.90;;;;;;5050450;28;20883;-58
2022/12/22 11:09:48;;;;;;;1.90;0.50;;;10.90;99.90;;;;;;5062502;28;20719;-58
2022/12/22 11:12:23;;;;;;;0.85;0.40;;;10.90;99.90;;;;;;5072686;28;20412;-59
2022/12/22 11:14:59;;;;;;;1.90;0.30;;;11.00;99.90;;;;;;5070308;28;20427;-58
2022/12/22 11:17:35;;;;;;;2.80;0.40;;;11.10;99.90;;;;;;5069708;28;20435;-58
2022/12/22 11:20:24;;;;;;;2.38;1.13;;;11.30;99.90;;;;;;5066999;28;20987;-58
2022/12/22 11:23:00;;;;;;;0.80;0.40;;;11.40;99.90;;;;;;5068781;28;20427;-58
2022/12/22 11:25:38;;;;;;;3.53;0.30;;;11.50;99.90;;;;;;5069206;28;20419;-58
2022/12/22 11:28:19;;;;;;;0.80;0.30;;;11.70;99.90;;;;;;5072108;28;20518;-59
2022/12/22 11:30:55;;;;;;;1.27;0.30;;;11.70;99.90;;;;;;5071322;28;20423;-58
2022/12/22 11:33:31;;;;;;;0.60;0.20;;;11.90;99.90;;;;;;5072311;28;20565;-58
2022/12/22 11:36:03;;;;;;;1.90;0.30;;;11.90;99.90;;;;;;5073317;28;20455;-58
2022/12/22 11:38:46;;;;;;;0.80;0.30;;;11.90;99.90;;;;;;5069304;28;20443;-59
2022/12/22 11:41:26;;;;;;;1.30;0.38;;;11.90;99.90;;;;;;5068345;28;20458;-58
2022/12/22 11:44:14;;;;;;;0.57;0.30;;;11.80;99.90;;;;;;5071794;28;20743;-58
2022/12/22 11:46:52;;;;;;;1.10;0.30;;;11.80;99.90;;;;;;5068809;28;20419;-59
2022/12/22 11:49:52;;;;;;;0.60;0.30;;;11.90;99.90;;;;;;5069261;28;20514;-59
2022/12/22 11:52:37;;;;;;;0.50;0.20;;;12.10;99.90;;;;;;5019621;28;20478;-59
2022/12/22 11:55:17;;;;;;;1.50;0.25;;;12.20;99.90;;;;;;5067366;28;20436;-59
2022/12/22 11:57:57;;;;;;;0.50;0.20;;;12.10;99.90;;;;;;5070306;28;20594;-59
2022/12/22 12:00:25;;;;;;;1.10;0.20;;;12.10;99.90;;;;;;5069258;28;20435;-59
2022/12/22 12:03:45;;;;;;;0.70;0.20;;;12.00;99.90;;;;;;5070146;28;20599;-59
2022/12/22 12:06:28;;;;;;;1.95;0.30;;;12.00;99.90;;;;;;5070244;28;20430;-59
2022/12/22 12:09:24;;;;;;;1.20;0.30;;;12.10;99.90;;;;;;5069072;28;20432;-60
2022/12/22 12:11:59;;;;;;;0.50;0.20;;;12.10;99.90;;;;;;5065514;28;20428;-58
2022/12/22 12:14:34;;;;;;;1.00;0.28;;;12.30;99.90;;;;;;5069265;28;20526;-60
2022/12/22 12:17:11;;;;;;;0.90;0.20;;;12.40;99.90;;;;;;5068272;28;20507;-59
2022/12/22 12:20:03;;;;;;;1.02;0.20;;;12.50;99.90;;;;;;5070485;28;20431;-59
2022/12/22 12:22:45;;;;;;;1.17;0.30;;;12.50;99.90;;;;;;5068656;28;20463;-58
2022/12/22 12:25:24;;;;;;;1.10;0.20;;;12.60;99.90;;;;;;5072217;28;20530;-59
2022/12/22 12:28:06;;;;;;;1.50;0.20;;;12.50;99.90;;;;;;5071656;28;20518;-59
2022/12/22 12:30:41;;;;;;;0.50;0.20;;;12.50;99.90;;;;;;5073715;28;20504;-59
2022/12/22 12:33:15;;;;;;;1.60;0.20;;;12.50;99.90;;;;;;5071701;28;20523;-61
2022/12/22 12:35:52;;;;;;;1.20;0.30;;;12.40;99.90;;;;;;5071066;28;20781;-59
2022/12/22 12:38:25;;;;;;;1.65;0.40;;;12.30;99.90;;;;;;5070728;28;20495;-59
2022/12/22 12:40:57;;;;;;;0.88;0.20;;;12.30;99.90;;;;;;5070720;28;20521;-59
2022/12/22 12:43:24;;;;;;;1.50;0.20;;;12.20;99.90;;;;;;5070950;28;20523;-59
2022/12/22 12:45:54;;;;;;;1.30;0.30;;;12.10;99.90;;;;;;5051364;28;20515;-59
2022/12/22 12:48:39;;;;;;;1.10;0.40;;;12.20;99.90;;;;;;5051598;28;20440;-60
2022/12/22 12:51:53;;;;;;;0.90;0.20;;;12.10;99.90;;;;;;5051952;28;20506;-59
2022/12/22 12:54:37;;;;;;;0.60;0.30;;;12.20;99.90;;;;;;5002930;28;20456;-59
2022/12/22 12:57:23;;;;;;;0.50;0.20;;;12.20;99.90;;;;;;5049161;28;20413;-60
2022/12/22 12:59:52;;;;;;;0.68;0.20;;;12.20;99.90;;;;;;5050123;28;20524;-59
2022/12/22 13:02:55;;;;;;;0.60;0.20;;;12.20;99.90;;;;;;5051734;28;20912;-60
2022/12/22 13:05:35;;;;;;;0.90;0.30;;;12.20;99.90;;;;;;5035928;28;20449;-60
2022/12/22 13:08:20;;;;;;;0.50;0.20;;;12.20;99.90;;;;;;5048799;28;20504;-60
2022/12/22 13:11:23;;;;;;;0.60;0.22;;;12.20;99.90;;;;;;5064946;28;20430;-60
2022/12/22 13:13:52;;;;;;;0.90;0.30;;;12.20;99.90;;;;;;5066935;28;20416;-60
2022/12/22 13:16:28;;;;;;;0.73;0.20;;;12.20;99.90;;;;;;5066243;28;20430;-60
2022/12/22 13:18:58;;;;;;;0.90;0.20;;;12.20;99.90;;;;;;5066121;28;20805;-60
2022/12/22 13:21:38;;;;;;;1.13;0.20;;;12.20;99.90;;;;;;5067364;28;20485;-60
2022/12/22 13:24:13;;;;;;;0.70;0.20;;;12.10;99.90;;;;;;5069168;28;20432;-60
2022/12/22 13:26:44;;;;;;;1.13;0.20;;;12.10;99.90;;;;;;5069742;28;20522;-60
2022/12/22 13:29:22;;;;;;;2.70;0.38;;;12.10;99.90;;;;;;5068174;28;20942;-60
2022/12/22 13:31:56;;;;;;;0.57;0.30;;;12.00;99.90;;;;;;5068851;28;20419;-60
2022/12/22 13:34:41;;;;;;;0.70;0.20;;;12.00;99.90;;;;;;5069441;28;20739;-60
2022/12/22 13:37:17;;;;;;;0.80;0.20;;;12.00;99.90;;;;;;5070202;28;20839;-60
2022/12/22 13:40:20;;;;;;;0.70;0.20;;;12.00;99.90;;;;;;5059626;28;20944;-60
2022/12/22 13:42:50;;;;;;;0.73;0.30;;;12.00;99.90;;;;;;5064876;28;20436;-60
2022/12/22 13:45:32;;;;;;;0.40;0.20;;;12.00;99.90;;;;;;5069154;28;20511;-60
2022/12/22 13:48:02;;;;;;;2.17;0.30;;;12.00;99.90;;;;;;5067477;28;20435;-60
2022/12/22 13:50:35;;;;;;;0.50;0.20;;;12.00;99.90;;;;;;5060832;28;20503;-60
2022/12/22 13:53:06;;;;;;;1.00;0.30;;;12.10;99.90;;;;;;5067028;28;20427;-58
2022/12/22 13:55:35;;;;;;;0.50;0.20;;;12.10;99.90;;;;;;5068424;28;20502;-60
2022/12/22 13:58:08;;;;;;;0.60;0.20;;;12.10;99.90;;;;;;5068810;28;20424;-59
2022/12/22 14:00:36;;;;;;;0.40;0.20;;;12.20;99.90;;;;;;5067128;28;20424;-60
2022/12/22 14:03:12;;;;;;;1.10;0.20;;;12.20;99.90;;;;;;5069537;28;21032;-60
2022/12/22 14:05:39;;;;;;;1.58;0.28;;;12.30;99.90;;;;;;5070351;28;20449;-59
2022/12/22 14:08:07;;;;;;;0.60;0.20;;;12.20;99.90;;;;;;5076039;28;20612;-59
2022/12/22 14:10:37;;;;;;;0.60;0.30;;;12.20;99.90;;;;;;5071796;28;20545;-59
2022/12/22 14:13:07;;;;;;;0.53;0.20;;;12.20;99.90;;;;;;5073482;28;20861;-58
2022/12/22 14:15:36;;;;;;;1.85;0.40;;;12.20;99.90;;;;;;5069854;28;20723;-59
2022/12/22 14:18:04;;;;;;;1.20;0.30;;;12.20;99.90;;;;;;5070900;28;20427;-59
2022/12/22 14:20:35;;;;;;;2.90;0.20;;;12.20;99.90;;;;;;5071875;28;20708;-58
2022/12/22 14:23:08;;;;;;;0.60;0.20;;;12.20;99.90;;;;;;5070700;28;20467;-59
2022/12/22 14:25:38;;;;;;;0.80;0.40;;;12.30;99.90;;;;;;5066327;28;20416;-57
2022/12/22 14:28:11;;;;;;;1.40;0.40;;;12.20;99.90;;;;;;5069697;28;20432;-59
2022/12/22 14:30:45;;;;;;;0.60;0.20;;;12.10;99.90;;;;;;5069586;28;20790;-60
2022/12/22 14:33:18;;;;;;;0.90;0.20;;;12.10;99.90;;;;;;5079090;28;20434;-59
2022/12/22 14:35:45;;;;;;;1.25;0.20;;;12.00;99.90;;;;;;5075685;28;21021;-59
2022/12/22 14:38:22;;;;;;;0.90;0.20;;;11.90;99.90;;;;;;5065447;28;20425;-59
2022/12/22 14:40:50;;;;;;;1.30;0.30;;;11.90;99.90;;;;;;5073146;28;20501;-57
2022/12/22 14:43:26;;;;;;;0.70;0.30;;;11.90;99.90;;;;;;5073230;28;20526;-60
2022/12/22 14:46:04;;;;;;;1.40;0.30;;;11.80;99.90;;;;;;5072056;28;20438;-59
2022/12/22 14:48:33;;;;;;;1.00;0.30;;;11.90;99.90;;;;;;5071094;28;20411;-59
2022/12/22 14:51:02;;;;;;;1.30;0.30;;;11.90;99.90;;;;;;5076768;28;21025;-59
2022/12/22 14:53:38;;;;;;;2.22;0.50;;;11.80;99.90;;;;;;5073594;28;20419;-60
2022/12/22 14:56:10;;;;;;;1.60;0.40;;;11.80;99.90;;;;;;5080074;28;20689;-59
2022/12/22 14:58:42;;;;;;;2.13;0.30;;;11.80;99.90;;;;;;5065663;28;20443;-59
2022/12/22 15:01:18;;;;;;;1.70;0.30;;;11.70;99.90;;;;;;5078916;28;20884;-57
2022/12/22 15:03:57;;;;;;;1.38;0.30;;;11.70;99.90;;;;;;5081764;28;20526;-58
2022/12/22 15:06:34;;;;;;;2.30;0.50;;;11.60;99.90;;;;;;5072975;28;20885;-59
2022/12/22 15:09:25;;;;;;;2.53;0.40;;;11.60;99.90;;;;;;5069385;28;20501;-60
2022/12/22 15:11:56;;;;;;;1.67;0.30;;;11.50;99.90;;;;;;5066868;28;22283;-55
2022/12/22 15:14:25;;;;;;;1.10;0.40;;;11.50;99.90;;;;;;5074002;28;20822;-60
2022/12/22 15:16:58;;;;;;;1.70;0.40;;;11.40;99.90;;;;;;5071470;28;20942;-59
2022/12/22 15:19:30;;;;;;;2.20;0.30;;;11.30;99.90;;;;;;5067801;28;20424;-57
2022/12/22 15:21:57;;;;;;;4.47;1.00;;;11.30;99.90;;;;;;5060455;28;20530;-59
2022/12/22 15:24:25;;;;;;;2.30;0.50;;;11.40;99.90;;;;;;5072658;28;20847;-58
2022/12/22 15:26:52;;;;;;;1.33;0.30;;;11.30;99.90;;;;;;5056255;28;20806;-59
2022/12/22 15:29:22;;;;;;;2.33;0.40;;;11.30;99.90;;;;;;5070401;28;20760;-59
2022/12/22 15:31:49;;;;;;;1.90;0.40;;;11.30;99.90;;;;;;5062959;28;21139;-58
2022/12/22 15:34:23;;;;;;;2.15;0.40;;;11.20;99.90;;;;;;5069666;28;20419;-59
2022/12/22 15:36:50;;;;;;;1.20;0.38;;;11.20;99.90;;;;;;5070474;28;20427;-58
2022/12/22 15:39:19;;;;;;;2.20;0.40;;;11.20;99.90;;;;;;5071202;28;20426;-58
2022/12/22 15:41:47;;;;;;;1.90;0.40;;;11.20;99.90;;;;;;5071987;28;20439;-58
2022/12/22 15:44:15;;;;;;;1.35;0.50;;;11.20;99.90;;;;;;5067567;28;20427;-59
2022/12/22 15:46:45;;;;;;;1.80;0.40;;;11.10;99.90;;;;;;5064414;28;20431;-58
2022/12/22 15:49:16;;;;;;;1.40;0.40;;;11.10;99.90;;;;;;5070592;28;20550;-58
2022/12/22 15:51:47;;;;;;;2.20;0.40;;;11.20;99.90;;;;;;5070974;28;20446;-58
2022/12/22 15:54:17;;;;;;;1.70;0.30;;;11.20;99.90;;;;;;5068983;28;20431;-59
2022/12/22 15:56:44;;;;;;;2.40;0.40;;;11.10;99.90;;;;;;5070586;28;20510;-58
2022/12/22 15:59:20;;;;;;;1.10;0.40;;;11.00;99.90;;;;;;5070256;28;20514;-58
2022/12/22 16:01:49;;;;;;;0.90;0.30;;;11.10;99.90;;;;;;5070313;28;20437;-58
2022/12/22 16:04:21;;;;;;;1.63;0.40;;;11.00;99.90;;;;;;5071405;28;20439;-57
2022/12/22 16:06:50;;;;;;;1.08;0.32;;;11.00;99.90;;;;;;5070572;28;20467;-58
2022/12/22 16:09:21;;;;;;;2.00;0.40;;;10.90;99.90;;;;;;5071069;28;20423;-57
2022/12/22 16:11:49;;;;;;;1.75;0.30;;;10.90;99.90;;;;;;5069515;28;20431;-58
2022/12/22 16:14:18;;;;;;;2.40;0.68;;;10.80;99.90;;;;;;5071819;28;20850;-59
2022/12/22 16:16:46;;;;;;;1.27;0.40;;;10.80;99.90;;;;;;5067217;28;20423;-58
2022/12/22 16:19:15;;;;;;;2.20;0.40;;;10.80;99.90;;;;;;5064297;28;20415;-58
2022/12/22 16:21:44;;;;;;;1.30;0.30;;;10.80;99.90;;;;;;5069677;28;20508;-58
2022/12/22 16:24:24;;;;;;;1.48;0.40;;;10.70;99.90;;;;;;5070158;28;20862;-58
2022/12/22 16:26:51;;;;;;;1.30;0.50;;;10.70;99.90;;;;;;5069569;28;20463;-58
2022/12/22 16:29:19;;;;;;;2.80;0.50;;;10.60;99.90;;;;;;5070750;28;20663;-58
2022/12/22 16:31:48;;;;;;;1.40;0.40;;;10.70;99.90;;;;;;5069729;28;20533;-58
2022/12/22 16:34:15;;;;;;;1.30;0.40;;;10.70;99.90;;;;;;5068811;28;20424;-58
2022/12/22 16:36:42;;;;;;;3.03;1.00;;;10.70;99.90;;;;;;5070004;28;20545;-57
2022/12/22 16:39:10;;;;;;;2.53;0.50;;;10.70;99.90;;;;;;5071300;28;20426;-58
2022/12/22 16:41:39;;;;;;;2.30;0.43;;;10.60;99.90;;;;;;5070553;28;20705;-58
2022/12/22 16:44:08;;;;;;;1.03;0.40;;;10.70;99.90;;;;;;5069563;28;20439;-58
2022/12/22 16:46:37;;;;;;;1.60;0.40;;;10.60;99.90;;;;;;5070609;28;20530;-58
2022/12/22 16:49:08;;;;;;;1.40;0.40;;;10.70;99.90;;;;;;5080287;28;20657;-58
2022/12/22 16:51:50;;;;;;;1.23;0.30;;;10.70;99.90;;;;;;5074030;28;20429;-57